createdAt,value
2022-10-19T00:00:36.786Z,70.88
2022-10-19T00:03:28.844Z,70.86
2022-10-19T00:05:58.389Z,70.93
2022-10-19T00:08:28.901Z,71.03
2022-10-19T00:10:58.378Z,70.97
2022-10-19T00:13:27.576Z,70.88
2022-10-19T00:15:56.735Z,70.79
2022-10-19T00:18:25.868Z,70.84
2022-10-19T00:21:03.276Z,70.92
2022-10-19T00:23:34.137Z,70.89
2022-10-19T00:26:03.863Z,70.96
2022-10-19T00:28:33.378Z,70.86
2022-10-19T00:31:05.071Z,71.04
2022-10-19T00:33:34.449Z,71.01
2022-10-19T00:36:03.556Z,70.97
2022-10-19T00:38:34.734Z,71.08
2022-10-19T00:41:04.782Z,71.17
2022-10-19T00:43:34.180Z,71.03
2022-10-19T00:46:03.328Z,71.07
2022-10-19T00:48:34.249Z,71.10
2022-10-19T00:51:03.930Z,71.05
2022-10-19T00:53:34.738Z,71.18
2022-10-19T00:56:08.895Z,71.08
2022-10-19T00:58:38.394Z,71.20
2022-10-19T01:01:10.551Z,71.14
2022-10-19T01:03:40.550Z,71.17
2022-10-19T01:06:11.401Z,71.19
2022-10-19T01:08:42.008Z,71.53
2022-10-19T01:11:24.313Z,71.39
2022-10-19T01:14:10.791Z,71.45
2022-10-19T01:16:54.770Z,71.55
2022-10-19T01:19:55.978Z,71.50
2022-10-19T01:22:34.831Z,71.84
2022-10-19T01:25:20.782Z,71.74
2022-10-19T01:28:04.524Z,71.78
2022-10-19T01:30:45.904Z,71.88
2022-10-19T01:33:30.399Z,71.92
2022-10-19T01:36:09.680Z,71.75
2022-10-19T01:38:50.323Z,71.85
2022-10-19T01:41:28.216Z,72.08
2022-10-19T01:44:02.943Z,72.16
2022-10-19T01:46:39.204Z,72.06
2022-10-19T01:49:15.191Z,72.08
2022-10-19T01:51:50.713Z,72.04
2022-10-19T01:54:22.663Z,72.03
2022-10-19T01:56:53.563Z,72.03
2022-10-19T01:59:23.784Z,72.13
2022-10-19T02:01:56.041Z,72.12
2022-10-19T02:04:26.768Z,71.88
2022-10-19T02:06:56.733Z,71.85
2022-10-19T02:09:26.287Z,71.79
2022-10-19T02:11:58.008Z,71.92
2022-10-19T02:14:32.113Z,71.75
2022-10-19T02:17:07.186Z,71.74
2022-10-19T02:19:37.679Z,71.70
2022-10-19T02:22:07.476Z,71.75
2022-10-19T02:24:37.015Z,71.87
2022-10-19T02:27:08.502Z,72.17
2022-10-19T02:29:39.796Z,71.78
2022-10-19T02:32:12.221Z,71.98
2022-10-19T02:34:42.483Z,72.58
2022-10-19T02:37:11.974Z,72.97
2022-10-19T02:39:41.969Z,72.89
2022-10-19T02:42:12.745Z,73.18
2022-10-19T02:44:48.649Z,73.27
2022-10-19T02:47:22.905Z,73.15
2022-10-19T02:49:53.258Z,73.31
2022-10-19T02:52:22.381Z,73.12
2022-10-19T02:54:51.597Z,73.20
2022-10-19T02:57:23.064Z,73.22
2022-10-19T02:59:53.409Z,73.42
2022-10-19T03:02:24.392Z,73.26
2022-10-19T03:04:53.735Z,73.68
2022-10-19T03:07:23.402Z,73.49
2022-10-19T03:09:53.003Z,73.41
2022-10-19T03:12:22.183Z,73.35
2022-10-19T03:14:51.888Z,73.35
2022-10-19T03:17:20.972Z,73.11
2022-10-19T03:19:51.689Z,73.35
2022-10-19T03:22:20.841Z,73.46
2022-10-19T03:24:50.301Z,73.28
2022-10-19T03:27:19.514Z,73.29
2022-10-19T03:29:48.759Z,73.14
2022-10-19T03:32:17.950Z,73.46
2022-10-19T03:34:47.104Z,73.30
2022-10-19T03:37:17.612Z,73.41
2022-10-19T03:39:47.073Z,73.33
2022-10-19T03:42:16.294Z,73.33
2022-10-19T03:44:45.582Z,73.04
2022-10-19T03:47:14.706Z,73.50
2022-10-19T03:49:44.814Z,73.43
2022-10-19T03:52:13.952Z,73.42
2022-10-19T03:54:45.000Z,73.39
2022-10-19T03:57:14.667Z,73.29
2022-10-19T03:59:43.996Z,73.27
2022-10-19T04:02:13.158Z,73.14
2022-10-19T04:04:42.543Z,73.29
2022-10-19T04:07:11.627Z,73.07
2022-10-19T04:09:41.473Z,73.17
2022-10-19T04:12:12.336Z,73.13
2022-10-19T04:14:56.357Z,73.13
2022-10-19T04:17:27.195Z,73.25
2022-10-19T04:19:56.612Z,73.12
2022-10-19T04:22:25.824Z,73.01
2022-10-19T04:24:55.883Z,73.28
2022-10-19T04:27:26.421Z,73.10
2022-10-19T04:29:55.813Z,73.25
2022-10-19T04:32:24.972Z,73.09
2022-10-19T04:34:54.411Z,73.05
2022-10-19T04:37:23.566Z,72.95
2022-10-19T04:39:52.965Z,73.01
2022-10-19T04:42:22.077Z,72.88
2022-10-19T04:44:52.848Z,72.77
2022-10-19T04:47:21.933Z,72.92
2022-10-19T04:49:51.342Z,72.86
2022-10-19T04:52:20.484Z,72.90
2022-10-19T04:54:49.761Z,72.71
2022-10-19T04:57:19.001Z,72.87
2022-10-19T04:59:48.194Z,73.05
2022-10-19T05:02:18.708Z,72.97
2022-10-19T05:04:50.320Z,72.97
2022-10-19T05:07:19.536Z,72.89
2022-10-19T05:09:48.698Z,72.84
2022-10-19T05:12:17.801Z,72.80
2022-10-19T05:14:47.308Z,72.72
2022-10-19T05:17:17.806Z,72.68
2022-10-19T05:19:47.251Z,72.78
2022-10-19T05:22:16.362Z,72.71
2022-10-19T05:24:45.690Z,72.60
2022-10-19T05:27:14.936Z,72.68
2022-10-19T05:29:44.249Z,72.63
2022-10-19T05:32:13.467Z,72.54
2022-10-19T05:34:44.294Z,72.68
2022-10-19T05:37:13.535Z,72.59
2022-10-19T05:39:42.881Z,72.43
2022-10-19T05:42:12.079Z,72.39
2022-10-19T05:44:41.498Z,72.39
2022-10-19T05:47:10.922Z,72.50
2022-10-19T05:49:40.232Z,72.46
2022-10-19T05:52:10.803Z,72.40
2022-10-19T05:54:40.218Z,72.52
2022-10-19T05:57:09.459Z,72.55
2022-10-19T05:59:38.787Z,72.45
2022-10-19T06:02:07.948Z,72.46
2022-10-19T06:04:37.614Z,72.44
2022-10-19T06:07:06.718Z,72.55
2022-10-19T06:09:37.539Z,72.44
2022-10-19T06:12:07.084Z,72.66
2022-10-19T06:14:36.512Z,72.55
2022-10-19T06:17:06.748Z,72.61
2022-10-19T06:19:36.209Z,72.62
2022-10-19T06:22:05.540Z,72.70
2022-10-19T06:24:36.446Z,72.68
2022-10-19T06:27:06.742Z,72.70
2022-10-19T06:29:36.504Z,72.73
2022-10-19T06:32:05.721Z,72.68
2022-10-19T06:34:35.067Z,72.83
2022-10-19T06:37:04.257Z,72.86
2022-10-19T06:39:33.539Z,72.60
2022-10-19T06:42:04.075Z,72.74
2022-10-19T06:44:33.485Z,72.67
2022-10-19T06:47:02.653Z,72.94
2022-10-19T06:49:32.211Z,72.89
2022-10-19T06:52:01.423Z,72.88
2022-10-19T06:54:30.813Z,72.67
2022-10-19T06:57:00.593Z,72.79
2022-10-19T06:59:31.469Z,72.87
2022-10-19T07:02:00.798Z,72.84
2022-10-19T07:04:30.542Z,72.88
2022-10-19T07:07:00.517Z,72.88
2022-10-19T07:09:30.011Z,72.96
2022-10-19T07:11:59.166Z,72.93
2022-10-19T07:14:31.642Z,72.93
2022-10-19T07:17:01.558Z,72.96
2022-10-19T07:19:32.430Z,72.76
2022-10-19T07:22:01.689Z,73.00
2022-10-19T07:24:31.157Z,73.10
2022-10-19T07:27:00.335Z,72.86
2022-10-19T07:29:31.067Z,72.83
2022-10-19T07:32:00.325Z,72.88
2022-10-19T07:34:29.870Z,72.76
2022-10-19T07:36:59.059Z,72.82
2022-10-19T07:39:28.536Z,72.77
2022-10-19T07:41:57.772Z,72.80
2022-10-19T07:44:27.907Z,72.80
2022-10-19T07:46:59.291Z,72.91
2022-10-19T07:49:30.213Z,72.67
2022-10-19T07:51:59.319Z,72.60
2022-10-19T07:54:28.947Z,72.57
2022-10-19T07:56:58.076Z,72.66
2022-10-19T07:59:27.632Z,72.42
2022-10-19T08:01:59.311Z,72.50
2022-10-19T08:04:59.103Z,72.60
2022-10-19T08:07:18.260Z,72.52
2022-10-19T08:09:53.330Z,72.50
2022-10-19T08:12:23.090Z,72.56
2022-10-19T08:14:52.410Z,72.61
2022-10-19T08:17:23.290Z,72.53
2022-10-19T08:19:52.710Z,72.37
2022-10-19T08:22:21.811Z,72.54
2022-10-19T08:24:51.496Z,72.51
2022-10-19T08:27:20.595Z,72.54
2022-10-19T08:29:50.034Z,72.67
2022-10-19T08:32:19.723Z,72.58
2022-10-19T08:34:50.571Z,72.56
2022-10-19T08:37:32.549Z,72.51
2022-10-19T08:40:18.029Z,72.35
2022-10-19T08:42:57.155Z,72.30
2022-10-19T08:48:34.023Z,72.02
2022-10-19T08:51:09.309Z,71.93
2022-10-19T08:53:45.128Z,71.95
2022-10-19T08:56:49.356Z,72.04
2022-10-19T08:59:27.276Z,71.86
2022-10-19T09:01:59.403Z,71.91
2022-10-19T09:04:34.001Z,71.74
2022-10-19T09:07:25.443Z,71.62
2022-10-19T09:09:59.472Z,71.54
2022-10-19T09:12:44.223Z,71.27
2022-10-19T09:15:16.647Z,71.21
2022-10-19T09:17:46.418Z,71.24
2022-10-19T09:20:17.051Z,71.51
2022-10-19T09:22:52.179Z,71.29
2022-10-19T09:25:24.147Z,70.88
2022-10-19T09:28:04.725Z,70.94
2022-10-19T09:30:39.541Z,71.00
2022-10-19T09:33:29.647Z,71.01
2022-10-19T09:36:02.262Z,70.65
2022-10-19T09:38:33.600Z,71.03
2022-10-19T09:41:16.819Z,71.04
2022-10-19T09:43:53.589Z,71.21
2022-10-19T09:46:38.872Z,71.11
2022-10-19T09:49:08.636Z,70.75
2022-10-19T09:51:46.362Z,71.12
2022-10-19T09:54:32.395Z,71.08
2022-10-19T09:57:01.851Z,70.42
2022-10-19T09:59:35.044Z,70.63
2022-10-19T10:02:31.554Z,70.58
2022-10-19T10:05:07.628Z,70.39
2022-10-19T10:07:39.610Z,70.17
2022-10-19T10:10:28.093Z,70.14
2022-10-19T10:13:00.926Z,70.07
2022-10-19T10:15:37.710Z,69.85
2022-10-19T10:18:07.152Z,69.96
2022-10-19T10:20:36.396Z,70.25
2022-10-19T10:23:07.216Z,69.83
2022-10-19T10:25:38.858Z,70.15
2022-10-19T10:28:20.625Z,69.24
2022-10-19T10:30:54.699Z,69.04
2022-10-19T10:33:40.751Z,68.83
2022-10-19T10:36:15.068Z,68.54
2022-10-19T10:38:48.613Z,68.31
2022-10-19T10:41:23.224Z,68.42
2022-10-19T10:43:58.515Z,68.03
2022-10-19T10:46:35.801Z,68.57
2022-10-19T10:49:07.772Z,68.42
2022-10-19T10:51:49.196Z,67.74
2022-10-19T10:54:22.846Z,67.31
2022-10-19T10:57:20.381Z,67.63
2022-10-19T10:59:56.464Z,67.22
2022-10-19T11:02:36.809Z,67.24
2022-10-19T11:05:12.193Z,66.94
2022-10-19T11:07:45.766Z,66.61
2022-10-19T11:10:25.548Z,67.17
2022-10-19T11:13:05.984Z,67.27
2022-10-19T11:15:47.240Z,67.43
2022-10-19T11:18:22.697Z,66.88
2022-10-19T11:21:02.406Z,67.25
2022-10-19T11:23:55.338Z,66.67
2022-10-19T11:26:43.019Z,66.12
2022-10-19T11:29:28.950Z,65.59
2022-10-19T11:31:59.370Z,64.98
2022-10-19T11:34:50.139Z,66.04
2022-10-19T11:37:27.597Z,64.98
2022-10-19T11:40:11.959Z,65.42
2022-10-19T11:42:50.973Z,65.19
2022-10-19T11:45:33.573Z,65.36
2022-10-19T11:48:18.345Z,65.62
2022-10-19T11:51:04.106Z,65.45
2022-10-19T11:53:58.692Z,65.23
2022-10-19T11:56:45.037Z,64.88
2022-10-19T11:59:35.757Z,65.27
2022-10-19T12:02:22.627Z,64.53
2022-10-19T12:04:58.569Z,64.95
2022-10-19T12:07:46.473Z,65.17
2022-10-19T12:10:25.896Z,64.92
2022-10-19T12:12:59.639Z,65.19
2022-10-19T12:15:32.706Z,65.24
2022-10-19T12:18:12.791Z,64.68
2022-10-19T12:20:48.438Z,64.89
2022-10-19T12:23:26.053Z,65.23
2022-10-19T12:25:58.606Z,65.16
2022-10-19T12:28:32.196Z,65.15
2022-10-19T12:31:04.013Z,65.39
2022-10-19T12:33:46.465Z,65.13
2022-10-19T12:36:26.557Z,64.77
2022-10-19T12:39:05.705Z,65.41
2022-10-19T12:41:45.855Z,65.74
2022-10-19T12:44:48.134Z,65.94
2022-10-19T12:47:20.749Z,66.16
2022-10-19T12:49:52.863Z,65.87
2022-10-19T12:52:39.306Z,65.87
2022-10-19T12:55:29.812Z,65.88
2022-10-19T12:58:02.940Z,66.00
2022-10-19T13:00:34.647Z,65.83
2022-10-19T13:03:08.204Z,65.87
2022-10-19T13:05:40.155Z,65.12
2022-10-19T13:08:12.352Z,65.84
2022-10-19T13:11:03.706Z,65.83
2022-10-19T13:14:04.879Z,66.13
2022-10-19T13:16:57.589Z,66.02
2022-10-19T13:19:28.247Z,65.91
2022-10-19T13:22:26.975Z,66.10
2022-10-19T13:25:27.157Z,66.03
2022-10-19T13:28:01.307Z,66.28
2022-10-19T13:31:04.975Z,66.54
2022-10-19T13:33:51.090Z,66.99
2022-10-19T13:36:22.112Z,67.08
2022-10-19T13:39:08.597Z,67.92
2022-10-19T13:41:57.296Z,68.10
2022-10-19T13:44:35.517Z,68.19
2022-10-19T13:47:43.614Z,67.88
2022-10-19T13:50:30.401Z,67.76
2022-10-19T13:53:34.111Z,67.46
2022-10-19T13:56:32.656Z,67.02
2022-10-19T13:59:43.608Z,66.22
2022-10-19T14:02:56.922Z,65.65
2022-10-19T14:05:54.522Z,65.65
2022-10-19T14:08:41.869Z,65.11
2022-10-19T14:11:19.199Z,66.08
2022-10-19T14:14:08.057Z,66.16
2022-10-19T14:16:45.999Z,65.84
2022-10-19T14:19:21.056Z,65.59
2022-10-19T14:21:50.520Z,65.65
2022-10-19T14:24:28.846Z,65.57
2022-10-19T14:27:01.570Z,65.52
2022-10-19T14:29:32.519Z,65.60
2022-10-19T14:32:02.012Z,65.49
2022-10-19T14:34:31.631Z,65.59
2022-10-19T14:37:01.259Z,65.76
2022-10-19T14:39:34.267Z,65.78
2022-10-19T14:42:11.093Z,65.66
2022-10-19T14:44:43.217Z,65.92
2022-10-19T14:47:20.547Z,65.80
2022-10-19T14:49:50.425Z,65.55
2022-10-19T14:52:25.515Z,65.41
2022-10-19T14:54:56.963Z,65.19
2022-10-19T14:57:30.982Z,64.94
2022-10-19T15:00:03.257Z,64.84
2022-10-19T15:02:39.990Z,64.82
2022-10-19T15:05:20.404Z,64.76
2022-10-19T15:07:50.355Z,64.68
2022-10-19T15:10:24.280Z,64.51
2022-10-19T15:13:02.623Z,64.41
2022-10-19T15:15:34.867Z,64.17
2022-10-19T15:18:06.797Z,64.23
2022-10-19T15:20:49.290Z,64.14
2022-10-19T15:23:39.513Z,64.24
2022-10-19T15:26:18.367Z,64.20
2022-10-19T15:28:50.218Z,64.11
2022-10-19T15:31:22.070Z,64.06
2022-10-19T15:33:54.372Z,64.07
2022-10-19T15:36:25.537Z,63.96
2022-10-19T15:39:18.460Z,64.15
2022-10-19T15:41:53.736Z,64.04
2022-10-19T15:44:41.570Z,64.05
2022-10-19T15:47:23.291Z,64.06
2022-10-19T15:49:59.265Z,64.11
2022-10-19T15:52:30.161Z,63.85
2022-10-19T15:55:01.495Z,64.19
2022-10-19T15:57:33.695Z,64.35
2022-10-19T16:00:13.581Z,64.47
2022-10-19T16:02:44.285Z,64.51
2022-10-19T16:05:13.288Z,64.63
2022-10-19T16:07:43.151Z,64.61
2022-10-19T16:10:19.818Z,64.82
2022-10-19T16:12:49.324Z,64.74
2022-10-19T16:15:23.493Z,64.86
2022-10-19T16:17:55.401Z,64.80
2022-10-19T16:20:26.312Z,64.89
2022-10-19T16:22:55.876Z,64.90
2022-10-19T16:25:25.156Z,64.92
2022-10-19T16:27:55.327Z,65.11
2022-10-19T16:30:26.374Z,65.03
2022-10-19T16:32:56.146Z,64.87
2022-10-19T16:35:25.527Z,64.89
2022-10-19T16:37:55.074Z,65.03
2022-10-19T16:40:24.674Z,65.02
2022-10-19T16:42:56.727Z,65.17
2022-10-19T16:45:27.460Z,65.25
2022-10-19T16:47:57.131Z,65.24
2022-10-19T16:50:26.646Z,65.37
2022-10-19T16:53:10.199Z,65.34
2022-10-19T16:55:40.713Z,65.44
2022-10-19T16:58:10.212Z,65.33
2022-10-19T17:00:40.948Z,65.52
2022-10-19T17:03:10.282Z,65.61
2022-10-19T17:05:40.352Z,65.57
2022-10-19T17:08:12.043Z,65.63
2022-10-19T17:10:41.378Z,65.71
2022-10-19T17:13:10.718Z,65.74
2022-10-19T17:15:43.280Z,65.68
2022-10-19T17:18:13.122Z,65.68
2022-10-19T17:20:42.488Z,65.67
2022-10-19T17:23:11.606Z,65.64
2022-10-19T17:25:49.033Z,65.50
2022-10-19T17:28:18.474Z,65.51
2022-10-19T17:30:49.241Z,65.65
2022-10-19T17:33:19.669Z,65.59
2022-10-19T17:35:48.991Z,65.68
2022-10-19T17:38:18.254Z,65.67
2022-10-19T17:40:47.536Z,65.71
2022-10-19T17:43:17.134Z,65.83
2022-10-19T17:45:47.711Z,65.92
2022-10-19T17:48:17.421Z,65.83
2022-10-19T17:50:46.631Z,65.92
2022-10-19T17:53:15.933Z,66.01
2022-10-19T17:55:45.781Z,66.03
2022-10-19T17:58:15.388Z,65.99
2022-10-19T18:00:44.553Z,66.01
2022-10-19T18:03:15.415Z,66.07
2022-10-19T18:05:44.636Z,66.16
2022-10-19T18:08:13.931Z,66.20
2022-10-19T18:10:43.435Z,66.30
2022-10-19T18:13:12.521Z,66.21
2022-10-19T18:15:41.825Z,66.33
2022-10-19T18:18:11.127Z,66.39
2022-10-19T18:20:42.651Z,66.27
2022-10-19T18:23:12.390Z,66.55
2022-10-19T18:25:53.821Z,66.41
2022-10-19T18:28:24.041Z,66.34
2022-10-19T18:30:53.239Z,66.32
2022-10-19T18:33:23.490Z,66.27
2022-10-19T18:35:58.643Z,66.27
2022-10-19T18:38:28.265Z,66.37
2022-10-19T18:41:01.827Z,66.22
2022-10-19T18:43:31.835Z,66.43
2022-10-19T18:46:01.903Z,66.36
2022-10-19T18:48:31.993Z,66.31
2022-10-19T18:51:06.247Z,66.40
2022-10-19T18:53:36.826Z,66.42
2022-10-19T18:56:09.488Z,66.45
2022-10-19T18:58:39.534Z,66.63
2022-10-19T19:01:11.262Z,66.50
2022-10-19T19:03:42.362Z,66.78
2022-10-19T19:06:15.251Z,66.59
2022-10-19T19:08:45.857Z,66.65
2022-10-19T19:11:16.993Z,66.68
2022-10-19T19:13:50.636Z,66.77
2022-10-19T19:16:20.103Z,66.85
2022-10-19T19:18:49.691Z,66.72
2022-10-19T19:21:23.325Z,66.86
2022-10-19T19:23:53.905Z,66.88
2022-10-19T19:26:26.482Z,66.92
2022-10-19T19:28:57.287Z,66.80
2022-10-19T19:31:27.238Z,66.83
2022-10-19T19:33:56.983Z,66.79
2022-10-19T19:36:28.529Z,66.87
2022-10-19T19:38:59.196Z,66.91
2022-10-19T19:41:29.230Z,66.92
2022-10-19T19:43:59.051Z,66.76
2022-10-19T19:46:28.112Z,66.69
2022-10-19T19:49:02.386Z,66.81
2022-10-19T19:51:34.204Z,66.64
2022-10-19T19:54:04.069Z,66.55
2022-10-19T19:56:33.275Z,66.58
2022-10-19T19:59:04.573Z,66.59
2022-10-19T20:01:35.886Z,66.69
2022-10-19T20:04:06.301Z,66.52
2022-10-19T20:06:38.756Z,66.52
2022-10-19T20:09:10.783Z,66.53
2022-10-19T20:11:42.741Z,66.29
2022-10-19T20:14:12.679Z,66.51
2022-10-19T20:16:41.998Z,66.49
2022-10-19T20:19:14.131Z,66.39
2022-10-19T20:21:45.814Z,66.46
2022-10-19T20:24:15.396Z,66.39
2022-10-19T20:26:44.517Z,66.24
2022-10-19T20:29:14.104Z,66.26
2022-10-19T20:31:43.324Z,66.26
2022-10-19T20:34:14.332Z,66.37
2022-10-19T20:36:45.301Z,66.21
2022-10-19T20:39:15.219Z,66.42
2022-10-19T20:41:44.497Z,66.45
2022-10-19T20:44:13.811Z,66.31
2022-10-19T20:46:43.270Z,66.39
2022-10-19T20:49:13.886Z,66.53
2022-10-19T20:51:43.304Z,66.58
2022-10-19T20:54:14.603Z,66.64
2022-10-19T20:56:44.083Z,66.64
2022-10-19T20:59:14.530Z,66.59
2022-10-19T21:01:45.382Z,66.79
2022-10-19T21:04:17.059Z,66.77
2022-10-19T21:06:48.088Z,66.87
2022-10-19T21:09:21.168Z,67.13
2022-10-19T21:11:52.412Z,67.00
2022-10-19T21:14:27.147Z,67.28
2022-10-19T21:16:58.886Z,67.26
2022-10-19T21:19:30.942Z,67.32
2022-10-19T21:22:03.337Z,67.30
2022-10-19T21:24:36.753Z,67.34
2022-10-19T21:27:09.287Z,67.44
2022-10-19T21:29:39.194Z,67.48
2022-10-19T21:32:08.312Z,67.45
2022-10-19T21:34:37.782Z,67.46
2022-10-19T21:37:06.908Z,67.52
2022-10-19T21:39:39.570Z,67.52
2022-10-19T21:42:08.817Z,67.66
2022-10-19T21:44:38.111Z,67.55
2022-10-19T21:47:07.975Z,67.53
2022-10-19T21:49:37.512Z,67.77
2022-10-19T21:52:06.941Z,67.63
2022-10-19T21:54:37.580Z,67.55
2022-10-19T21:57:06.796Z,67.80
2022-10-19T21:59:36.131Z,67.78
2022-10-19T22:02:05.487Z,67.63
2022-10-19T22:04:34.800Z,67.88
2022-10-19T22:07:05.264Z,67.86
2022-10-19T22:09:34.850Z,67.88
2022-10-19T22:12:05.575Z,67.72
2022-10-19T22:14:35.062Z,67.79
2022-10-19T22:17:04.186Z,67.78
2022-10-19T22:19:33.690Z,67.89
2022-10-19T22:22:03.192Z,67.84
2022-10-19T22:24:32.305Z,67.84
2022-10-19T22:27:01.552Z,67.88
2022-10-19T22:29:32.670Z,67.84
2022-10-19T22:32:01.988Z,68.04
2022-10-19T22:34:32.345Z,68.18
2022-10-19T22:37:01.631Z,68.01
2022-10-19T22:39:31.149Z,67.78
2022-10-19T22:42:00.402Z,68.05
2022-10-19T22:44:31.213Z,68.12
2022-10-19T22:47:00.926Z,68.07
2022-10-19T22:49:30.276Z,68.09
2022-10-19T22:51:59.220Z,68.12
2022-10-19T22:54:28.423Z,68.10
2022-10-19T22:56:57.816Z,68.12
2022-10-19T22:59:27.138Z,67.95
2022-10-19T23:01:58.023Z,68.15
2022-10-19T23:04:27.376Z,68.15
2022-10-19T23:06:56.508Z,68.13
2022-10-19T23:09:25.716Z,68.09
2022-10-19T23:11:54.926Z,68.09
2022-10-19T23:14:24.141Z,68.15
2022-10-19T23:16:53.226Z,68.06
2022-10-19T23:19:23.983Z,68.10
2022-10-19T23:21:53.084Z,68.14
2022-10-19T23:24:22.460Z,68.04
2022-10-19T23:26:53.598Z,68.25
2022-10-19T23:29:23.156Z,68.16
2022-10-19T23:31:52.184Z,68.31
2022-10-19T23:34:22.879Z,68.14
2022-10-19T23:36:51.874Z,68.30
2022-10-19T23:39:21.045Z,68.28
2022-10-19T23:41:50.050Z,68.42
2022-10-19T23:44:19.403Z,68.49
2022-10-19T23:46:48.410Z,68.47
2022-10-19T23:49:17.634Z,68.52
2022-10-19T23:51:48.102Z,68.58
2022-10-19T23:54:17.399Z,68.63
2022-10-19T23:56:46.363Z,68.55
2022-10-19T23:59:15.804Z,68.68
